Time;durP1;ratioP1;P1;durP2;ratioP2;P2;SDS_P1;SDS_P2;PMS_P1;PMS_P2;Temp;Humidity;BMP_temperature;BMP_pressure;BME280_temperature;BME280_humidity;BME280_pressure;Samples;Min_cycle;Max_cycle;Signal;HPM_P1;HPM_P2
2022/05/17 01:07:07;;;;;;;7.07;3.17;;;14.80;99.90;;;;;;5014193;28;20208;-89
2022/05/17 01:33:57;;;;;;;6.68;3.03;;;14.90;99.90;;;;;;5014138;28;20222;-89
2022/05/17 02:28:43;;;;;;;5.90;3.35;;;14.80;99.90;;;;;;4884934;29;20309;-89
2022/05/17 02:31:36;;;;;;;8.60;3.80;;;14.80;99.90;;;;;;4943870;29;20269;-89
2022/05/17 02:34:36;;;;;;;11.63;3.95;;;14.80;99.90;;;;;;4949048;29;20228;-89
2022/05/17 02:54:48;;;;;;;6.95;3.80;;;14.80;99.90;;;;;;4991739;28;20695;-89
2022/05/17 07:37:13;;;;;;;8.25;5.70;;;19.30;82.80;;;;;;4840983;29;20245;-91
2022/05/17 07:39:51;;;;;;;8.32;5.70;;;19.50;80.50;;;;;;4809769;29;20230;-91
2022/05/17 07:58:20;;;;;;;12.45;5.28;;;20.20;67.80;;;;;;4890986;29;20212;-91
2022/05/17 08:00:49;;;;;;;7.03;4.82;;;20.40;65.80;;;;;;4894217;29;20217;-91
2022/05/17 08:03:17;;;;;;;7.10;4.80;;;20.60;66.00;;;;;;4963065;28;20296;-91
2022/05/17 08:05:48;;;;;;;5.72;4.53;;;20.90;62.00;;;;;;4952848;29;20225;-91
2022/05/17 08:08:16;;;;;;;6.53;5.03;;;21.20;57.60;;;;;;4955240;29;20248;-91
2022/05/17 08:10:56;;;;;;;6.88;4.90;;;21.00;56.80;;;;;;4944085;29;20344;-91
2022/05/17 08:13:25;;;;;;;7.32;4.75;;;20.50;57.60;;;;;;4953326;29;20237;-91
2022/05/17 08:15:53;;;;;;;8.70;4.90;;;20.30;63.80;;;;;;4941108;29;20206;-93
2022/05/17 08:18:24;;;;;;;7.72;4.80;;;20.30;65.00;;;;;;4974900;28;20263;-90
2022/05/17 08:20:54;;;;;;;7.28;5.63;;;20.40;62.30;;;;;;4992316;28;20220;-91
2022/05/17 08:23:50;;;;;;;8.57;4.32;;;20.50;64.50;;;;;;5003030;28;20203;-90
2022/05/17 08:29:09;;;;;;;6.43;4.40;;;21.10;61.50;;;;;;5040369;28;20602;-91
2022/05/17 08:35:01;;;;;;;9.25;4.75;;;22.50;51.90;;;;;;5031804;28;20672;-91
2022/05/17 08:37:28;;;;;;;5.97;4.40;;;22.30;45.80;;;;;;5043380;28;20226;-90
2022/05/17 08:40:00;;;;;;;6.55;4.22;;;22.30;48.20;;;;;;5037757;28;20273;-91
2022/05/17 08:42:33;;;;;;;8.00;4.20;;;22.80;45.80;;;;;;5037099;28;20753;-89
2022/05/17 08:45:06;;;;;;;6.28;3.80;;;23.40;41.50;;;;;;5031320;28;20650;-86
2022/05/17 08:47:43;;;;;;;6.03;3.70;;;24.70;36.00;;;;;;5063313;28;20261;-85
2022/05/17 08:50:20;;;;;;;5.50;3.45;;;26.80;26.90;;;;;;5058307;28;20213;-86
2022/05/17 08:52:48;;;;;;;7.38;3.95;;;27.60;24.80;;;;;;5048193;28;20222;-86
2022/05/17 08:55:22;;;;;;;6.47;4.22;;;28.40;21.60;;;;;;5062755;28;20205;-86
2022/05/17 08:57:57;;;;;;;6.00;4.00;;;28.70;20.90;;;;;;5070350;28;20208;-86
2022/05/17 09:00:28;;;;;;;4.47;3.20;;;29.70;17.80;;;;;;5032767;28;20209;-86
2022/05/17 09:03:00;;;;;;;6.50;4.30;;;31.40;17.30;;;;;;5051456;28;20585;-86
2022/05/17 09:05:36;;;;;;;6.05;4.20;;;32.20;14.60;;;;;;5045629;28;20209;-86
2022/05/17 09:08:19;;;;;;;4.85;3.67;;;30.70;17.00;;;;;;5050953;28;20209;-86
2022/05/17 09:11:01;;;;;;;6.53;4.15;;;29.90;17.50;;;;;;5050711;28;20681;-86
2022/05/17 09:13:48;;;;;;;6.65;3.80;;;29.00;18.50;;;;;;5063144;28;20205;-86
2022/05/17 09:16:15;;;;;;;5.32;3.95;;;29.00;18.80;;;;;;5040446;28;20217;-86
2022/05/17 09:18:46;;;;;;;5.63;3.88;;;29.40;17.70;;;;;;5050860;28;20242;-86
2022/05/17 09:21:30;;;;;;;4.55;3.55;;;29.20;16.80;;;;;;5031546;28;20232;-86
2022/05/17 09:23:59;;;;;;;4.90;3.60;;;29.70;16.50;;;;;;5054977;28;20206;-85
2022/05/17 09:26:27;;;;;;;5.80;4.18;;;31.40;16.10;;;;;;5054423;28;20263;-86
2022/05/17 09:29:00;;;;;;;6.13;4.10;;;33.00;13.40;;;;;;5049321;28;20242;-85
2022/05/17 09:31:33;;;;;;;6.55;3.50;;;33.40;11.90;;;;;;5055312;28;20217;-86
2022/05/17 09:34:02;;;;;;;5.43;4.15;;;33.40;12.00;;;;;;5057755;28;20208;-86
2022/05/17 09:36:33;;;;;;;6.88;4.43;;;32.50;11.10;;;;;;5053540;28;20206;-86
2022/05/17 09:39:06;;;;;;;4.93;4.00;;;33.30;10.70;;;;;;5065505;28;20679;-86
2022/05/17 09:41:35;;;;;;;5.32;4.10;;;33.70;10.10;;;;;;5033699;28;20236;-86
2022/05/17 09:44:06;;;;;;;3.90;3.50;;;33.80;10.50;;;;;;5068700;28;20219;-86
2022/05/17 09:46:35;;;;;;;4.35;3.83;;;33.90;8.90;;;;;;5042122;28;20208;-85
2022/05/17 09:54:44;;;;;;;6.20;4.32;;;35.80;8.10;;;;;;5058860;28;20205;-86
2022/05/17 09:57:21;;;;;;;4.63;4.13;;;35.40;7.30;;;;;;5052180;28;20209;-86
2022/05/17 09:59:58;;;;;;;5.38;4.13;;;36.00;6.80;;;;;;5052549;28;20208;-86
2022/05/17 10:02:41;;;;;;;5.07;4.53;;;33.90;8.90;;;;;;5058518;28;20210;-86
2022/05/17 10:05:24;;;;;;;6.55;4.38;;;31.70;11.80;;;;;;5057385;28;20202;-86
2022/05/17 10:08:26;;;;;;;6.65;4.53;;;31.40;15.10;;;;;;5050483;28;20201;-86
2022/05/17 10:11:05;;;;;;;5.72;3.83;;;30.40;14.40;;;;;;5043337;28;20229;-86
2022/05/17 10:13:35;;;;;;;6.53;3.67;;;29.80;16.50;;;;;;5050919;28;20193;-86
2022/05/17 10:16:10;;;;;;;5.95;3.45;;;30.20;15.90;;;;;;5067205;28;20274;-86
2022/05/17 10:18:41;;;;;;;3.88;3.00;;;31.10;14.90;;;;;;5052098;28;20210;-86
2022/05/17 10:21:18;;;;;;;5.75;3.47;;;31.90;13.10;;;;;;5048651;28;20204;-86
2022/05/17 10:23:59;;;;;;;6.55;3.55;;;32.50;10.20;;;;;;5048549;28;20205;-86
2022/05/17 10:26:33;;;;;;;5.85;4.40;;;32.50;12.60;;;;;;5037518;28;20245;-86
2022/05/17 10:29:06;;;;;;;5.57;3.85;;;32.70;12.50;;;;;;5047852;28;20213;-85
2022/05/17 10:31:50;;;;;;;5.22;3.65;;;32.30;12.90;;;;;;5048493;28;20709;-86
2022/05/17 10:34:31;;;;;;;4.80;4.22;;;32.60;13.10;;;;;;5048309;28;20261;-86
2022/05/17 10:37:06;;;;;;;4.88;3.90;;;32.50;12.00;;;;;;5055482;28;20212;-86
2022/05/17 10:39:38;;;;;;;4.88;3.58;;;31.90;13.30;;;;;;5047001;28;20334;-85
2022/05/17 10:42:07;;;;;;;4.05;3.42;;;32.10;12.70;;;;;;5046337;28;20214;-85
2022/05/17 10:44:40;;;;;;;3.92;3.30;;;32.30;11.80;;;;;;5032960;28;20208;-85
2022/05/17 10:47:22;;;;;;;4.70;3.40;;;31.60;12.00;;;;;;5058459;28;20206;-85
2022/05/17 10:50:24;;;;;;;6.13;3.35;;;31.20;12.00;;;;;;5040807;28;20222;-85
2022/05/17 10:53:04;;;;;;;4.75;2.97;;;30.80;12.40;;;;;;4984027;28;20301;-85
2022/05/17 10:55:45;;;;;;;4.07;3.15;;;30.10;16.10;;;;;;5003727;28;20250;-85
2022/05/17 10:58:29;;;;;;;5.10;3.20;;;30.50;13.30;;;;;;5003175;28;20219;-85
2022/05/17 11:01:06;;;;;;;4.50;3.47;;;30.70;13.10;;;;;;4994940;28;20203;-85
2022/05/17 11:04:02;;;;;;;7.28;3.50;;;29.20;14.60;;;;;;4991313;28;20211;-85
2022/05/17 11:06:33;;;;;;;6.10;3.42;;;28.50;15.90;;;;;;4972168;28;20204;-85
2022/05/17 11:09:10;;;;;;;6.50;3.25;;;27.50;18.00;;;;;;5002747;28;20239;-85
2022/05/17 11:11:59;;;;;;;7.05;2.80;;;26.60;19.10;;;;;;4961253;28;20215;-84
2022/05/17 11:14:38;;;;;;;5.97;2.85;;;26.00;17.70;;;;;;4991690;28;20286;-85
2022/05/17 11:17:16;;;;;;;4.07;3.10;;;25.90;19.70;;;;;;4965276;28;20251;-85
2022/05/17 11:20:11;;;;;;;2.53;2.30;;;25.70;18.50;;;;;;4999134;28;20239;-86
2022/05/17 11:22:53;;;;;;;5.03;2.22;;;25.10;17.80;;;;;;5001896;28;20202;-86
2022/05/17 11:25:43;;;;;;;3.67;2.40;;;24.20;20.80;;;;;;4993720;28;20208;-89
2022/05/17 11:28:50;;;;;;;4.78;2.92;;;24.40;23.90;;;;;;4972044;28;20218;-89
2022/05/17 11:31:21;;;;;;;4.15;2.67;;;24.20;22.40;;;;;;5049859;28;20700;-89
2022/05/17 11:33:48;;;;;;;6.05;2.70;;;24.00;24.80;;;;;;5046849;28;20714;-89
2022/05/17 11:36:44;;;;;;;4.43;2.75;;;24.20;23.80;;;;;;5054651;28;20241;-89
2022/05/17 11:39:46;;;;;;;2.95;2.30;;;24.60;20.00;;;;;;5037056;28;20198;-89
2022/05/17 11:45:50;;;;;;;2.88;2.50;;;23.80;22.60;;;;;;4967634;28;20286;-90
2022/05/17 11:48:20;;;;;;;2.72;2.40;;;23.90;24.70;;;;;;4972077;28;20224;-90
2022/05/17 11:50:57;;;;;;;6.53;2.83;;;24.50;24.10;;;;;;4974489;28;20219;-89
2022/05/17 11:53:50;;;;;;;3.97;2.60;;;24.80;22.50;;;;;;4981561;28;20688;-88
2022/05/17 11:56:35;;;;;;;6.55;2.80;;;25.20;23.80;;;;;;4994893;28;20244;-88
2022/05/17 11:59:42;;;;;;;5.50;2.50;;;24.90;22.20;;;;;;4993510;28;20208;-89
2022/05/17 12:02:14;;;;;;;4.53;2.63;;;24.70;24.20;;;;;;4945798;29;20209;-88
2022/05/17 12:04:43;;;;;;;4.60;2.80;;;24.50;24.10;;;;;;4959724;29;20213;-88
2022/05/17 12:07:30;;;;;;;4.53;2.80;;;24.40;23.90;;;;;;4947618;29;20206;-88
2022/05/17 12:10:13;;;;;;;4.60;2.70;;;24.40;23.90;;;;;;4946473;29;20225;-88
2022/05/17 12:12:55;;;;;;;9.70;2.85;;;24.20;23.80;;;;;;4947178;29;20214;-88
2022/05/17 12:15:39;;;;;;;5.03;2.80;;;24.40;26.00;;;;;;4947464;29;20284;-89
2022/05/17 12:18:36;;;;;;;3.70;2.50;;;24.40;25.20;;;;;;4955364;28;20214;-89
2022/05/17 12:21:32;;;;;;;4.55;2.90;;;24.00;24.90;;;;;;4976003;28;20216;-90
2022/05/17 12:24:08;;;;;;;5.00;2.63;;;24.00;27.90;;;;;;4921662;29;20218;-90
2022/05/17 12:26:52;;;;;;;5.63;3.00;;;24.40;23.90;;;;;;4916821;29;20203;-88
2022/05/17 12:32:20;;;;;;;4.82;2.88;;;24.80;24.20;;;;;;4929234;29;20209;-88
2022/05/17 12:34:53;;;;;;;4.70;3.05;;;24.90;22.60;;;;;;4928442;29;20207;-89
2022/05/17 12:37:26;;;;;;;5.65;3.17;;;24.50;23.40;;;;;;4920102;29;20198;-89
2022/05/17 12:43:07;;;;;;;7.30;2.58;;;24.00;25.90;;;;;;4959097;28;20244;-88
2022/05/17 12:45:39;;;;;;;3.65;2.53;;;23.80;24.00;;;;;;4967176;28;20205;-90
2022/05/17 12:48:19;;;;;;;4.18;2.65;;;23.60;24.50;;;;;;4971948;28;20231;-90
2022/05/17 12:51:04;;;;;;;3.97;2.53;;;23.30;24.50;;;;;;4960935;28;20224;-90
2022/05/17 12:54:18;;;;;;;5.38;2.80;;;23.00;25.80;;;;;;4959516;28;20232;-90
2022/05/17 12:56:49;;;;;;;4.13;2.50;;;23.00;24.90;;;;;;4939311;29;20202;-90
2022/05/17 12:59:32;;;;;;;4.05;2.70;;;22.80;25.30;;;;;;4977015;28;20209;-90
2022/05/17 13:02:03;;;;;;;6.65;2.60;;;22.90;26.80;;;;;;5033315;28;20217;-90
2022/05/17 13:04:31;;;;;;;4.40;2.60;;;23.00;25.50;;;;;;5025609;28;20209;-90
2022/05/17 13:07:13;;;;;;;5.75;2.90;;;23.40;25.10;;;;;;5042081;28;20202;-90
2022/05/17 13:09:58;;;;;;;5.68;2.78;;;23.70;27.30;;;;;;5039938;28;20289;-90
2022/05/17 13:12:42;;;;;;;4.35;2.72;;;24.10;25.00;;;;;;5037215;28;20216;-90
2022/05/17 13:15:14;;;;;;;5.82;2.63;;;24.30;23.60;;;;;;5048222;28;20288;-90
2022/05/17 13:18:30;;;;;;;4.50;2.50;;;24.30;23.80;;;;;;5044345;28;20669;-90
2022/05/17 13:20:58;;;;;;;4.93;3.10;;;24.30;23.50;;;;;;5032308;28;20681;-90
2022/05/17 13:23:27;;;;;;;2.92;2.20;;;24.10;20.70;;;;;;5043935;28;20205;-90
2022/05/17 13:25:56;;;;;;;2.75;1.92;;;24.10;21.30;;;;;;5048548;28;20658;-90
2022/05/17 13:28:33;;;;;;;5.00;2.78;;;24.20;23.20;;;;;;5037029;28;20245;-90
2022/05/17 13:31:14;;;;;;;5.22;2.30;;;24.20;22.60;;;;;;5038222;28;20258;-90
2022/05/17 13:33:55;;;;;;;4.30;2.38;;;24.10;21.70;;;;;;5037973;28;20212;-90
2022/05/17 13:36:39;;;;;;;6.28;2.97;;;24.00;22.60;;;;;;5037967;28;20198;-90
2022/05/17 13:39:30;;;;;;;7.00;3.38;;;24.00;22.70;;;;;;5024929;28;20550;-90
2022/05/17 13:42:31;;;;;;;7.03;3.25;;;24.00;25.20;;;;;;5019094;28;20234;-92
2022/05/17 13:45:27;;;;;;;5.05;3.40;;;23.90;24.70;;;;;;5031127;28;20187;-91
2022/05/17 13:48:02;;;;;;;6.72;3.10;;;23.80;24.30;;;;;;5028908;28;20595;-91
2022/05/17 13:50:36;;;;;;;4.05;3.00;;;23.80;26.50;;;;;;5031902;28;20226;-90
2022/05/17 13:53:09;;;;;;;4.97;2.92;;;23.80;25.50;;;;;;5040277;28;20574;-90
2022/05/17 13:55:41;;;;;;;3.78;2.70;;;23.80;23.80;;;;;;5041711;28;20217;-90
2022/05/17 13:58:22;;;;;;;2.72;2.53;;;23.80;23.80;;;;;;5035367;28;20192;-90
2022/05/17 14:01:25;;;;;;;4.72;2.80;;;23.50;23.20;;;;;;5040989;28;20194;-90
2022/05/17 14:06:55;;;;;;;3.40;2.40;;;23.30;23.70;;;;;;5031997;28;20199;-90
2022/05/17 14:12:24;;;;;;;4.15;2.33;;;23.50;22.50;;;;;;5019277;28;21077;-91
2022/05/17 14:14:55;;;;;;;3.50;2.08;;;23.60;23.20;;;;;;5020595;28;20202;-91
2022/05/17 14:17:28;;;;;;;5.18;2.40;;;23.90;21.60;;;;;;5048183;28;20202;-91
2022/05/17 14:20:09;;;;;;;4.70;2.70;;;23.90;21.50;;;;;;5043696;28;20206;-90
2022/05/17 14:22:41;;;;;;;4.82;2.00;;;24.00;22.30;;;;;;5048284;28;20526;-90
2022/05/17 14:25:09;;;;;;;3.38;2.10;;;23.90;20.60;;;;;;5058105;28;20210;-90
2022/05/17 14:27:42;;;;;;;3.40;2.00;;;23.70;21.50;;;;;;5042094;28;20209;-91
2022/05/17 14:30:10;;;;;;;3.90;2.38;;;23.60;21.70;;;;;;5040862;28;20206;-90
2022/05/17 14:32:43;;;;;;;4.93;2.38;;;23.60;22.40;;;;;;5041336;28;20210;-90
2022/05/17 14:35:23;;;;;;;3.67;2.15;;;23.60;21.90;;;;;;5043375;28;20213;-90
2022/05/17 14:38:19;;;;;;;2.80;2.50;;;23.60;23.20;;;;;;5027917;28;20279;-90
2022/05/17 14:41:00;;;;;;;3.50;2.20;;;23.60;23.10;;;;;;5037442;28;20222;-90
2022/05/17 14:43:30;;;;;;;2.72;2.08;;;23.60;21.80;;;;;;5038739;28;20213;-91
2022/05/17 14:46:07;;;;;;;4.25;2.35;;;23.60;23.30;;;;;;5036643;28;20205;-90
2022/05/17 14:48:37;;;;;;;3.05;1.90;;;23.50;21.40;;;;;;5052362;28;20236;-91
2022/05/17 14:51:12;;;;;;;3.10;2.00;;;23.50;21.60;;;;;;5038765;28;20215;-91
2022/05/17 14:53:40;;;;;;;5.75;2.13;;;23.50;22.70;;;;;;5040540;28;20206;-91
2022/05/17 14:56:07;;;;;;;4.55;2.20;;;23.50;22.50;;;;;;5040460;28;20210;-90
2022/05/17 15:14:48;;;;;;;2.60;2.20;;;22.80;23.90;;;;;;4893862;29;20204;-91
2022/05/17 15:20:35;;;;;;;6.30;2.60;;;23.00;24.10;;;;;;4894118;29;20207;-92
2022/05/17 15:37:27;;;;;;;3.75;2.65;;;23.30;23.00;;;;;;4877450;29;20244;-90
2022/05/17 15:56:31;;;;;;;3.25;2.30;;;22.70;24.00;;;;;;4802336;30;20182;-89
2022/05/17 16:12:30;;;;;;;4.47;2.55;;;22.30;26.30;;;;;;4773860;29;20271;-91
2022/05/17 16:52:59;;;;;;;2.80;2.20;;;22.00;25.40;;;;;;4980425;28;20248;-91
2022/05/17 17:06:39;;;;;;;5.50;2.75;;;22.00;26.60;;;;;;4954264;29;20213;-92
2022/05/17 17:59:38;;;;;;;4.28;2.70;;;20.70;30.10;;;;;;5009477;28;20643;-90
2022/05/17 18:02:19;;;;;;;6.70;2.88;;;20.60;30.60;;;;;;5014799;28;20203;-88
2022/05/17 18:05:07;;;;;;;5.22;2.65;;;20.60;30.40;;;;;;5021131;28;20199;-90
2022/05/17 18:07:48;;;;;;;4.25;2.72;;;20.50;30.80;;;;;;5019462;28;20224;-89
2022/05/17 18:10:52;;;;;;;5.68;2.83;;;20.50;31.30;;;;;;5011369;28;20207;-91
2022/05/17 18:17:06;;;;;;;4.88;2.92;;;20.30;32.30;;;;;;5014157;28;20186;-90
2022/05/17 18:19:36;;;;;;;17.85;15.98;;;20.10;32.10;;;;;;5021781;28;20233;-88
2022/05/17 18:22:06;;;;;;;7.05;4.90;;;20.10;35.10;;;;;;5005751;28;20226;-89
2022/05/17 18:24:37;;;;;;;9.82;7.82;;;19.90;35.10;;;;;;5010731;28;20237;-88
2022/05/17 18:27:13;;;;;;;9.73;8.13;;;19.80;35.60;;;;;;5021043;28;20234;-89
2022/05/17 18:30:11;;;;;;;10.40;9.30;;;19.80;37.70;;;;;;5017077;28;20253;-88
2022/05/17 18:32:47;;;;;;;5.05;3.85;;;19.80;38.20;;;;;;5027358;28;20227;-89
2022/05/17 18:35:33;;;;;;;7.25;6.55;;;19.70;37.30;;;;;;5002355;28;20204;-88
2022/05/17 18:41:38;;;;;;;5.25;3.80;;;19.60;39.80;;;;;;5015837;28;20274;-90
2022/05/17 18:48:18;;;;;;;6.90;5.80;;;19.50;40.70;;;;;;4997133;28;20247;-88
